sensor_id;sensor_type;location;lat;lon;timestamp;pressure;altitude;pressure_sealevel;temperature;humidity
78841;BME280;68379;47.190;27.558;2023-06-26T00:01:11;99516.25;;;17.98;74.15
78841;BME280;68379;47.190;27.558;2023-06-26T00:03:55;99514.34;;;17.92;74.32
78841;BME280;68379;47.190;27.558;2023-06-26T00:06:27;99514.55;;;17.87;74.55
78841;BME280;68379;47.190;27.558;2023-06-26T00:09:00;99509.64;;;17.80;74.99
78841;BME280;68379;47.190;27.558;2023-06-26T00:11:32;99509.81;;;17.76;74.99
78841;BME280;68379;47.190;27.558;2023-06-26T00:14:05;99511.67;;;17.72;75.28
78841;BME280;68379;47.190;27.558;2023-06-26T00:16:37;99506.64;;;17.68;75.44
78841;BME280;68379;47.190;27.558;2023-06-26T00:19:09;99502.92;;;17.65;75.70
78841;BME280;68379;47.190;27.558;2023-06-26T00:21:41;99503.32;;;17.62;76.15
78841;BME280;68379;47.190;27.558;2023-06-26T00:24:18;99500.55;;;17.61;75.85
78841;BME280;68379;47.190;27.558;2023-06-26T00:26:51;99496.61;;;17.59;75.89
78841;BME280;68379;47.190;27.558;2023-06-26T00:29:23;99492.39;;;17.56;76.16
78841;BME280;68379;47.190;27.558;2023-06-26T00:31:54;99493.10;;;17.53;75.94
78841;BME280;68379;47.190;27.558;2023-06-26T00:34:26;99494.78;;;17.52;76.44
78841;BME280;68379;47.190;27.558;2023-06-26T00:36:58;99495.94;;;17.51;76.41
78841;BME280;68379;47.190;27.558;2023-06-26T00:39:30;99494.19;;;17.51;76.55
78841;BME280;68379;47.190;27.558;2023-06-26T00:42:02;99486.17;;;17.50;76.97
78841;BME280;68379;47.190;27.558;2023-06-26T00:44:34;99481.17;;;17.50;76.57
78841;BME280;68379;47.190;27.558;2023-06-26T00:47:07;99481.42;;;17.49;76.90
78841;BME280;68379;47.190;27.558;2023-06-26T00:49:39;99480.56;;;17.49;76.56
78841;BME280;68379;47.190;27.558;2023-06-26T00:52:11;99480.77;;;17.48;76.61
78841;BME280;68379;47.190;27.558;2023-06-26T00:54:43;99481.23;;;17.47;76.59
78841;BME280;68379;47.190;27.558;2023-06-26T00:57:15;99480.80;;;17.46;76.66
78841;BME280;68379;47.190;27.558;2023-06-26T00:59:47;99481.71;;;17.43;77.17
78841;BME280;68379;47.190;27.558;2023-06-26T01:02:19;99484.01;;;17.40;77.20
78841;BME280;68379;47.190;27.558;2023-06-26T01:04:52;99481.48;;;17.36;77.62
78841;BME280;68379;47.190;27.558;2023-06-26T01:07:24;99474.48;;;17.32;78.06
78841;BME280;68379;47.190;27.558;2023-06-26T01:09:56;99470.79;;;17.28;77.83
78841;BME280;68379;47.190;27.558;2023-06-26T01:12:28;99472.26;;;17.25;77.93
78841;BME280;68379;47.190;27.558;2023-06-26T01:15:01;99471.86;;;17.21;77.86
78841;BME280;68379;47.190;27.558;2023-06-26T01:17:33;99472.89;;;17.17;77.95
78841;BME280;68379;47.190;27.558;2023-06-26T01:20:07;99469.75;;;17.13;77.91
78841;BME280;68379;47.190;27.558;2023-06-26T01:22:42;99469.11;;;17.10;77.87
78841;BME280;68379;47.190;27.558;2023-06-26T01:25:21;99469.23;;;17.06;78.17
78841;BME280;68379;47.190;27.558;2023-06-26T01:27:55;99466.38;;;17.01;78.33
78841;BME280;68379;47.190;27.558;2023-06-26T01:30:29;99464.67;;;16.97;78.26
78841;BME280;68379;47.190;27.558;2023-06-26T01:33:02;99464.32;;;16.92;78.77
78841;BME280;68379;47.190;27.558;2023-06-26T01:35:34;99464.83;;;16.88;79.07
78841;BME280;68379;47.190;27.558;2023-06-26T01:38:17;99458.31;;;16.84;79.26
78841;BME280;68379;47.190;27.558;2023-06-26T01:40:50;99458.78;;;16.79;79.48
78841;BME280;68379;47.190;27.558;2023-06-26T01:43:27;99458.47;;;16.76;79.04
78841;BME280;68379;47.190;27.558;2023-06-26T01:46:01;99461.39;;;16.73;79.23
78841;BME280;68379;47.190;27.558;2023-06-26T01:48:43;99455.36;;;16.70;79.77
78841;BME280;68379;47.190;27.558;2023-06-26T01:51:19;99456.36;;;16.66;80.27
78841;BME280;68379;47.190;27.558;2023-06-26T01:53:56;99451.80;;;16.59;80.49
78841;BME280;68379;47.190;27.558;2023-06-26T01:56:30;99457.66;;;16.54;79.83
78841;BME280;68379;47.190;27.558;2023-06-26T01:59:03;99460.30;;;16.50;80.07
78841;BME280;68379;47.190;27.558;2023-06-26T02:46:28;99460.23;;;16.02;83.55
78841;BME280;68379;47.190;27.558;2023-06-26T02:48:57;99457.86;;;16.03;83.70
78841;BME280;68379;47.190;27.558;2023-06-26T02:51:26;99451.35;;;16.04;83.27
78841;BME280;68379;47.190;27.558;2023-06-26T02:54:13;99450.61;;;16.04;83.45
78841;BME280;68379;47.190;27.558;2023-06-26T02:56:42;99448.55;;;16.06;83.11
78841;BME280;68379;47.190;27.558;2023-06-26T02:59:12;99450.31;;;16.06;83.53
78841;BME280;68379;47.190;27.558;2023-06-26T03:01:41;99451.95;;;16.06;83.28
78841;BME280;68379;47.190;27.558;2023-06-26T03:04:10;99447.48;;;16.06;83.42
78841;BME280;68379;47.190;27.558;2023-06-26T03:06:39;99450.25;;;16.07;82.96
78841;BME280;68379;47.190;27.558;2023-06-26T03:09:08;99448.52;;;16.09;82.76
78841;BME280;68379;47.190;27.558;2023-06-26T03:11:38;99451.92;;;16.09;83.65
78841;BME280;68379;47.190;27.558;2023-06-26T03:14:07;99453.91;;;16.08;83.58
78841;BME280;68379;47.190;27.558;2023-06-26T03:16:36;99453.10;;;16.10;83.22
78841;BME280;68379;47.190;27.558;2023-06-26T03:19:06;99454.61;;;16.14;83.56
78841;BME280;68379;47.190;27.558;2023-06-26T03:21:35;99449.77;;;16.14;83.35
78841;BME280;68379;47.190;27.558;2023-06-26T03:24:06;99454.66;;;16.15;83.28
78841;BME280;68379;47.190;27.558;2023-06-26T03:26:36;99455.23;;;16.17;82.82
78841;BME280;68379;47.190;27.558;2023-06-26T03:29:05;99453.60;;;16.21;83.14
78841;BME280;68379;47.190;27.558;2023-06-26T03:31:34;99453.09;;;16.23;83.38
78841;BME280;68379;47.190;27.558;2023-06-26T03:34:03;99453.55;;;16.27;82.91
78841;BME280;68379;47.190;27.558;2023-06-26T03:36:33;99453.28;;;16.30;82.53
78841;BME280;68379;47.190;27.558;2023-06-26T03:39:04;99454.75;;;16.35;82.35
78841;BME280;68379;47.190;27.558;2023-06-26T03:41:34;99453.27;;;16.38;82.38
78841;BME280;68379;47.190;27.558;2023-06-26T03:44:04;99454.74;;;16.40;82.26
78841;BME280;68379;47.190;27.558;2023-06-26T03:46:33;99453.34;;;16.43;82.36
78841;BME280;68379;47.190;27.558;2023-06-26T03:49:02;99453.52;;;16.45;82.60
78841;BME280;68379;47.190;27.558;2023-06-26T03:51:31;99449.92;;;16.48;82.64
78841;BME280;68379;47.190;27.558;2023-06-26T03:54:01;99449.84;;;16.54;82.17
78841;BME280;68379;47.190;27.558;2023-06-26T03:56:30;99450.93;;;16.59;82.25
78841;BME280;68379;47.190;27.558;2023-06-26T03:58:59;99452.34;;;16.65;81.94
78841;BME280;68379;47.190;27.558;2023-06-26T04:01:28;99455.50;;;16.70;82.03
78841;BME280;68379;47.190;27.558;2023-06-26T04:03:58;99452.85;;;16.77;81.66
78841;BME280;68379;47.190;27.558;2023-06-26T04:06:27;99453.98;;;16.84;81.46
78841;BME280;68379;47.190;27.558;2023-06-26T04:08:56;99451.98;;;16.94;81.18
78841;BME280;68379;47.190;27.558;2023-06-26T04:11:26;99457.20;;;17.04;80.89
78841;BME280;68379;47.190;27.558;2023-06-26T04:13:56;99454.48;;;17.17;80.50
78841;BME280;68379;47.190;27.558;2023-06-26T04:16:26;99456.73;;;17.28;80.34
78841;BME280;68379;47.190;27.558;2023-06-26T04:18:59;99458.42;;;17.39;79.82
78841;BME280;68379;47.190;27.558;2023-06-26T04:21:29;99457.79;;;17.45;79.49
78841;BME280;68379;47.190;27.558;2023-06-26T04:23:59;99454.80;;;17.49;79.12
78841;BME280;68379;47.190;27.558;2023-06-26T04:26:28;99455.39;;;17.56;78.81
78841;BME280;68379;47.190;27.558;2023-06-26T04:28:59;99458.48;;;17.62;78.17
78841;BME280;68379;47.190;27.558;2023-06-26T04:31:28;99455.59;;;17.65;78.09
78841;BME280;68379;47.190;27.558;2023-06-26T04:33:58;99458.09;;;17.70;77.91
78841;BME280;68379;47.190;27.558;2023-06-26T04:36:28;99462.36;;;17.77;78.00
78841;BME280;68379;47.190;27.558;2023-06-26T04:38:59;99465.08;;;17.89;77.85
78841;BME280;68379;47.190;27.558;2023-06-26T04:41:28;99465.39;;;18.01;77.54
78841;BME280;68379;47.190;27.558;2023-06-26T04:43:58;99462.61;;;18.12;76.97
78841;BME280;68379;47.190;27.558;2023-06-26T04:46:28;99460.90;;;18.22;76.52
78841;BME280;68379;47.190;27.558;2023-06-26T04:48:57;99462.52;;;18.32;76.46
78841;BME280;68379;47.190;27.558;2023-06-26T04:51:27;99466.23;;;18.39;75.73
78841;BME280;68379;47.190;27.558;2023-06-26T04:53:57;99460.52;;;18.43;75.65
78841;BME280;68379;47.190;27.558;2023-06-26T04:56:26;99456.31;;;18.49;75.69
78841;BME280;68379;47.190;27.558;2023-06-26T04:58:56;99453.21;;;18.59;75.37
78841;BME280;68379;47.190;27.558;2023-06-26T05:01:25;99452.89;;;18.68;75.16
78841;BME280;68379;47.190;27.558;2023-06-26T05:03:58;99450.72;;;18.78;74.73
78841;BME280;68379;47.190;27.558;2023-06-26T05:06:28;99450.27;;;18.85;74.72
78841;BME280;68379;47.190;27.558;2023-06-26T05:08:57;99452.28;;;18.89;74.03
78841;BME280;68379;47.190;27.558;2023-06-26T05:11:26;99459.38;;;18.95;73.96
78841;BME280;68379;47.190;27.558;2023-06-26T05:13:55;99461.64;;;19.00;73.74
78841;BME280;68379;47.190;27.558;2023-06-26T05:16:24;99462.41;;;19.06;73.79
78841;BME280;68379;47.190;27.558;2023-06-26T05:18:53;99468.02;;;19.17;73.75
78841;BME280;68379;47.190;27.558;2023-06-26T05:21:23;99473.44;;;19.23;72.89
78841;BME280;68379;47.190;27.558;2023-06-26T05:23:57;99472.02;;;19.29;72.78
78841;BME280;68379;47.190;27.558;2023-06-26T05:26:27;99477.46;;;19.43;72.82
78841;BME280;68379;47.190;27.558;2023-06-26T05:28:57;99476.74;;;19.63;72.47
78841;BME280;68379;47.190;27.558;2023-06-26T05:31:28;99475.98;;;19.81;72.23
78841;BME280;68379;47.190;27.558;2023-06-26T05:34:01;99476.98;;;20.06;70.50
78841;BME280;68379;47.190;27.558;2023-06-26T05:36:34;99472.86;;;20.24;70.06
78841;BME280;68379;47.190;27.558;2023-06-26T05:39:07;99471.93;;;20.38;69.33
78841;BME280;68379;47.190;27.558;2023-06-26T05:41:37;99474.08;;;20.50;68.60
78841;BME280;68379;47.190;27.558;2023-06-26T05:44:06;99476.10;;;20.60;68.86
78841;BME280;68379;47.190;27.558;2023-06-26T05:46:35;99474.00;;;20.76;68.50
78841;BME280;68379;47.190;27.558;2023-06-26T05:49:05;99469.30;;;20.91;67.87
78841;BME280;68379;47.190;27.558;2023-06-26T05:51:36;99471.82;;;21.07;67.29
78841;BME280;68379;47.190;27.558;2023-06-26T05:54:08;99473.80;;;21.23;67.06
78841;BME280;68379;47.190;27.558;2023-06-26T05:56:38;99475.17;;;21.28;65.63
78841;BME280;68379;47.190;27.558;2023-06-26T05:59:08;99480.38;;;21.34;66.38
78841;BME280;68379;47.190;27.558;2023-06-26T06:01:38;99477.39;;;21.37;65.66
78841;BME280;68379;47.190;27.558;2023-06-26T06:04:08;99474.44;;;21.30;66.06
78841;BME280;68379;47.190;27.558;2023-06-26T06:06:38;99475.59;;;21.21;66.74
78841;BME280;68379;47.190;27.558;2023-06-26T06:09:08;99477.62;;;21.18;66.74
78841;BME280;68379;47.190;27.558;2023-06-26T06:11:37;99475.64;;;21.06;65.64
78841;BME280;68379;47.190;27.558;2023-06-26T06:14:07;99476.92;;;20.86;65.91
78841;BME280;68379;47.190;27.558;2023-06-26T06:16:36;99473.54;;;20.77;66.52
78841;BME280;68379;47.190;27.558;2023-06-26T06:19:05;99477.23;;;20.70;66.67
78841;BME280;68379;47.190;27.558;2023-06-26T06:21:35;99482.02;;;20.70;67.21
78841;BME280;68379;47.190;27.558;2023-06-26T06:24:06;99482.34;;;20.84;67.56
78841;BME280;68379;47.190;27.558;2023-06-26T06:26:36;99482.40;;;20.93;67.34
78841;BME280;68379;47.190;27.558;2023-06-26T06:29:05;99480.33;;;20.96;66.78
78841;BME280;68379;47.190;27.558;2023-06-26T06:31:35;99481.94;;;20.98;67.19
78841;BME280;68379;47.190;27.558;2023-06-26T06:34:04;99483.68;;;21.01;67.28
78841;BME280;68379;47.190;27.558;2023-06-26T06:36:34;99485.11;;;21.05;66.64
78841;BME280;68379;47.190;27.558;2023-06-26T06:39:03;99485.65;;;21.05;66.26
78841;BME280;68379;47.190;27.558;2023-06-26T06:41:32;99485.02;;;21.04;65.82
78841;BME280;68379;47.190;27.558;2023-06-26T06:44:02;99484.76;;;21.17;65.87
78841;BME280;68379;47.190;27.558;2023-06-26T06:46:31;99483.94;;;21.34;65.92
78841;BME280;68379;47.190;27.558;2023-06-26T06:49:00;99489.88;;;21.54;65.80
78841;BME280;68379;47.190;27.558;2023-06-26T06:51:32;99489.00;;;21.78;65.85
78841;BME280;68379;47.190;27.558;2023-06-26T06:54:01;99487.83;;;22.02;65.52
78841;BME280;68379;47.190;27.558;2023-06-26T06:56:31;99492.00;;;22.17;64.63
78841;BME280;68379;47.190;27.558;2023-06-26T06:59:00;99494.69;;;22.19;63.71
78841;BME280;68379;47.190;27.558;2023-06-26T07:01:29;99491.70;;;22.07;63.08
78841;BME280;68379;47.190;27.558;2023-06-26T07:03:58;99490.11;;;22.11;64.17
78841;BME280;68379;47.190;27.558;2023-06-26T07:06:28;99490.75;;;22.25;64.05
78841;BME280;68379;47.190;27.558;2023-06-26T07:08:57;99494.27;;;22.45;64.07
78841;BME280;68379;47.190;27.558;2023-06-26T07:11:27;99493.65;;;22.61;63.21
78841;BME280;68379;47.190;27.558;2023-06-26T07:13:56;99494.41;;;22.82;63.72
78841;BME280;68379;47.190;27.558;2023-06-26T07:16:26;99488.52;;;22.93;60.37
78841;BME280;68379;47.190;27.558;2023-06-26T07:18:55;99491.70;;;22.81;60.24
78841;BME280;68379;47.190;27.558;2023-06-26T07:21:25;99490.05;;;22.71;61.22
78841;BME280;68379;47.190;27.558;2023-06-26T07:23:55;99490.88;;;22.57;59.96
78841;BME280;68379;47.190;27.558;2023-06-26T07:26:24;99486.27;;;22.54;59.18
78841;BME280;68379;47.190;27.558;2023-06-26T07:28:53;99488.45;;;22.59;57.49
78841;BME280;68379;47.190;27.558;2023-06-26T07:31:25;99489.52;;;22.52;58.18
78841;BME280;68379;47.190;27.558;2023-06-26T07:33:54;99491.88;;;22.56;58.45
78841;BME280;68379;47.190;27.558;2023-06-26T07:36:23;99494.27;;;22.87;59.54
78841;BME280;68379;47.190;27.558;2023-06-26T07:38:52;99495.77;;;23.27;59.01
78841;BME280;68379;47.190;27.558;2023-06-26T07:41:21;99490.75;;;23.55;57.32
78841;BME280;68379;47.190;27.558;2023-06-26T07:43:51;99488.92;;;23.79;58.05
78841;BME280;68379;47.190;27.558;2023-06-26T07:46:20;99491.17;;;24.03;55.94
78841;BME280;68379;47.190;27.558;2023-06-26T07:48:49;99485.91;;;24.26;56.23
78841;BME280;68379;47.190;27.558;2023-06-26T07:51:18;99485.38;;;24.44;56.00
78841;BME280;68379;47.190;27.558;2023-06-26T07:53:48;99487.16;;;24.42;53.86
78841;BME280;68379;47.190;27.558;2023-06-26T07:56:17;99484.13;;;24.38;55.50
78841;BME280;68379;47.190;27.558;2023-06-26T07:58:47;99491.05;;;24.47;54.39
78841;BME280;68379;47.190;27.558;2023-06-26T08:01:16;99490.64;;;24.35;53.83
78841;BME280;68379;47.190;27.558;2023-06-26T08:03:45;99491.69;;;24.37;54.22
78841;BME280;68379;47.190;27.558;2023-06-26T08:06:15;99487.93;;;24.49;52.99
78841;BME280;68379;47.190;27.558;2023-06-26T08:08:44;99484.90;;;24.61;50.94
78841;BME280;68379;47.190;27.558;2023-06-26T08:11:14;99486.63;;;24.70;50.02
78841;BME280;68379;47.190;27.558;2023-06-26T08:13:43;99489.12;;;24.80;49.99
78841;BME280;68379;47.190;27.558;2023-06-26T08:16:13;99482.04;;;24.99;49.58
78841;BME280;68379;47.190;27.558;2023-06-26T08:18:42;99481.24;;;25.11;48.38
78841;BME280;68379;47.190;27.558;2023-06-26T08:21:11;99477.98;;;25.10;48.50
78841;BME280;68379;47.190;27.558;2023-06-26T08:23:40;99481.66;;;24.85;48.12
78841;BME280;68379;47.190;27.558;2023-06-26T08:26:10;99476.71;;;24.79;48.00
78841;BME280;68379;47.190;27.558;2023-06-26T08:28:39;99482.92;;;24.85;48.97
78841;BME280;68379;47.190;27.558;2023-06-26T08:31:08;99482.44;;;24.79;47.46
78841;BME280;68379;47.190;27.558;2023-06-26T08:33:38;99484.36;;;24.78;46.34
78841;BME280;68379;47.190;27.558;2023-06-26T08:36:07;99476.59;;;24.94;44.46
78841;BME280;68379;47.190;27.558;2023-06-26T08:38:37;99474.74;;;25.11;43.23
78841;BME280;68379;47.190;27.558;2023-06-26T08:41:09;99473.40;;;25.36;43.81
78841;BME280;68379;47.190;27.558;2023-06-26T08:43:38;99473.41;;;25.68;44.82
78841;BME280;68379;47.190;27.558;2023-06-26T08:46:08;99474.13;;;26.01;45.43
78841;BME280;68379;47.190;27.558;2023-06-26T08:48:38;99472.14;;;26.23;42.88
78841;BME280;68379;47.190;27.558;2023-06-26T08:51:11;99475.81;;;26.16;43.05
78841;BME280;68379;47.190;27.558;2023-06-26T08:53:52;99479.88;;;26.13;40.95
78841;BME280;68379;47.190;27.558;2023-06-26T08:56:28;99481.59;;;26.15;40.77
78841;BME280;68379;47.190;27.558;2023-06-26T08:58:58;99481.84;;;26.30;41.54
78841;BME280;68379;47.190;27.558;2023-06-26T09:01:28;99476.73;;;26.48;40.87
78841;BME280;68379;47.190;27.558;2023-06-26T09:03:57;99475.76;;;26.58;40.77
78841;BME280;68379;47.190;27.558;2023-06-26T09:06:27;99471.58;;;26.64;39.53
78841;BME280;68379;47.190;27.558;2023-06-26T09:08:57;99463.79;;;26.78;40.05
78841;BME280;68379;47.190;27.558;2023-06-26T09:11:27;99463.03;;;26.91;38.76
78841;BME280;68379;47.190;27.558;2023-06-26T09:13:59;99473.10;;;26.92;37.21
78841;BME280;68379;47.190;27.558;2023-06-26T09:16:28;99473.23;;;26.91;37.17
78841;BME280;68379;47.190;27.558;2023-06-26T09:18:58;99465.08;;;27.02;37.12
78841;BME280;68379;47.190;27.558;2023-06-26T09:21:27;99467.85;;;27.04;35.80
78841;BME280;68379;47.190;27.558;2023-06-26T09:23:57;99465.38;;;27.04;35.14
78841;BME280;68379;47.190;27.558;2023-06-26T09:26:27;99467.62;;;27.10;35.51
78841;BME280;68379;47.190;27.558;2023-06-26T09:28:58;99466.05;;;27.11;34.65
78841;BME280;68379;47.190;27.558;2023-06-26T09:31:27;99460.83;;;27.18;35.37
78841;BME280;68379;47.190;27.558;2023-06-26T09:33:59;99468.61;;;27.33;35.75
78841;BME280;68379;47.190;27.558;2023-06-26T09:36:30;99463.94;;;27.53;36.64
78841;BME280;68379;47.190;27.558;2023-06-26T09:39:02;99462.11;;;27.62;36.48
78841;BME280;68379;47.190;27.558;2023-06-26T09:41:33;99456.48;;;27.51;36.57
78841;BME280;68379;47.190;27.558;2023-06-26T09:44:04;99453.48;;;27.29;36.72
78841;BME280;68379;47.190;27.558;2023-06-26T09:46:34;99456.41;;;27.41;35.24
78841;BME280;68379;47.190;27.558;2023-06-26T09:49:05;99454.17;;;27.63;33.76
78841;BME280;68379;47.190;27.558;2023-06-26T09:51:36;99465.25;;;27.62;33.87
78841;BME280;68379;47.190;27.558;2023-06-26T09:54:06;99460.44;;;27.33;33.76
78841;BME280;68379;47.190;27.558;2023-06-26T09:56:36;99451.27;;;27.35;34.18
78841;BME280;68379;47.190;27.558;2023-06-26T09:59:06;99451.05;;;27.57;33.17
78841;BME280;68379;47.190;27.558;2023-06-26T10:01:41;99443.27;;;27.77;33.90
78841;BME280;68379;47.190;27.558;2023-06-26T10:04:12;99450.27;;;27.73;33.98
78841;BME280;68379;47.190;27.558;2023-06-26T10:06:47;99457.56;;;27.55;34.31
78841;BME280;68379;47.190;27.558;2023-06-26T10:09:19;99449.46;;;27.32;34.95
78841;BME280;68379;47.190;27.558;2023-06-26T10:11:55;99447.50;;;27.30;35.38
78841;BME280;68379;47.190;27.558;2023-06-26T10:14:27;99447.26;;;27.23;34.84
78841;BME280;68379;47.190;27.558;2023-06-26T10:17:01;99441.10;;;27.38;34.72
78841;BME280;68379;47.190;27.558;2023-06-26T10:19:33;99448.14;;;27.42;34.37
78841;BME280;68379;47.190;27.558;2023-06-26T10:22:03;99439.80;;;27.61;34.42
78841;BME280;68379;47.190;27.558;2023-06-26T10:24:35;99435.66;;;27.80;34.46
78841;BME280;68379;47.190;27.558;2023-06-26T10:27:07;99438.30;;;27.84;34.11
78841;BME280;68379;47.190;27.558;2023-06-26T10:29:38;99437.94;;;28.12;33.68
78841;BME280;68379;47.190;27.558;2023-06-26T10:32:10;99432.36;;;28.37;33.34
78841;BME280;68379;47.190;27.558;2023-06-26T10:34:41;99432.30;;;28.63;33.38
78841;BME280;68379;47.190;27.558;2023-06-26T10:37:13;99432.94;;;28.76;33.08
78841;BME280;68379;47.190;27.558;2023-06-26T10:39:49;99438.73;;;28.41;32.58
78841;BME280;68379;47.190;27.558;2023-06-26T10:42:19;99434.57;;;27.94;32.66
78841;BME280;68379;47.190;27.558;2023-06-26T10:44:49;99433.73;;;27.72;33.36
78841;BME280;68379;47.190;27.558;2023-06-26T10:47:33;99430.34;;;27.95;33.70
78841;BME280;68379;47.190;27.558;2023-06-26T10:50:24;99425.31;;;28.18;32.92
78841;BME280;68379;47.190;27.558;2023-06-26T10:53:14;99421.17;;;28.50;31.87
78841;BME280;68379;47.190;27.558;2023-06-26T10:55:55;99414.38;;;28.61;32.07
78841;BME280;68379;47.190;27.558;2023-06-26T10:58:32;99421.23;;;28.21;30.37
78841;BME280;68379;47.190;27.558;2023-06-26T11:01:18;99415.86;;;28.23;29.70
78841;BME280;68379;47.190;27.558;2023-06-26T11:03:49;99415.94;;;28.45;28.12
78841;BME280;68379;47.190;27.558;2023-06-26T11:06:22;99411.65;;;28.70;28.83
78841;BME280;68379;47.190;27.558;2023-06-26T11:08:54;99408.50;;;28.97;28.59
78841;BME280;68379;47.190;27.558;2023-06-26T11:11:56;99409.08;;;29.21;28.70
78841;BME280;68379;47.190;27.558;2023-06-26T11:14:33;99407.56;;;29.69;28.91
78841;BME280;68379;47.190;27.558;2023-06-26T11:17:06;99406.66;;;29.60;27.75
78841;BME280;68379;47.190;27.558;2023-06-26T11:19:36;99411.52;;;29.10;28.41
78841;BME280;68379;47.190;27.558;2023-06-26T11:22:06;99411.77;;;29.05;29.45
78841;BME280;68379;47.190;27.558;2023-06-26T11:24:37;99408.96;;;28.90;29.55
78841;BME280;68379;47.190;27.558;2023-06-26T11:27:06;99412.20;;;28.98;29.86
78841;BME280;68379;47.190;27.558;2023-06-26T11:29:36;99411.66;;;29.16;29.20
78841;BME280;68379;47.190;27.558;2023-06-26T11:32:07;99408.31;;;29.24;29.54
78841;BME280;68379;47.190;27.558;2023-06-26T11:34:36;99403.20;;;29.05;29.76
78841;BME280;68379;47.190;27.558;2023-06-26T11:37:07;99402.57;;;28.71;30.18
78841;BME280;68379;47.190;27.558;2023-06-26T11:39:36;99400.38;;;28.55;30.77
78841;BME280;68379;47.190;27.558;2023-06-26T11:42:06;99400.42;;;28.43;30.61
78841;BME280;68379;47.190;27.558;2023-06-26T11:44:42;99392.42;;;28.53;30.41
78841;BME280;68379;47.190;27.558;2023-06-26T11:47:15;99395.10;;;28.61;30.02
78841;BME280;68379;47.190;27.558;2023-06-26T11:49:45;99391.88;;;28.68;29.94
78841;BME280;68379;47.190;27.558;2023-06-26T11:52:16;99392.88;;;29.02;30.82
78841;BME280;68379;47.190;27.558;2023-06-26T11:54:45;99391.93;;;29.31;30.34
78841;BME280;68379;47.190;27.558;2023-06-26T11:57:18;99391.02;;;29.51;29.57
78841;BME280;68379;47.190;27.558;2023-06-26T11:59:50;99391.13;;;29.65;29.35
78841;BME280;68379;47.190;27.558;2023-06-26T12:02:20;99386.52;;;29.84;28.35
78841;BME280;68379;47.190;27.558;2023-06-26T12:04:50;99380.38;;;29.91;27.51
78841;BME280;68379;47.190;27.558;2023-06-26T12:07:19;99379.88;;;30.13;28.03
78841;BME280;68379;47.190;27.558;2023-06-26T12:09:51;99376.93;;;30.38;26.76
78841;BME280;68379;47.190;27.558;2023-06-26T12:12:20;99385.14;;;30.38;27.38
78841;BME280;68379;47.190;27.558;2023-06-26T12:14:51;99382.14;;;30.48;27.46
78841;BME280;68379;47.190;27.558;2023-06-26T12:17:23;99379.52;;;30.61;27.58
78841;BME280;68379;47.190;27.558;2023-06-26T12:19:53;99382.11;;;30.57;26.88
78841;BME280;68379;47.190;27.558;2023-06-26T12:22:22;99382.86;;;30.59;26.34
78841;BME280;68379;47.190;27.558;2023-06-26T12:24:52;99379.60;;;30.81;25.67
78841;BME280;68379;47.190;27.558;2023-06-26T12:27:26;99383.79;;;30.58;25.95
78841;BME280;68379;47.190;27.558;2023-06-26T12:29:56;99380.26;;;30.74;26.34
78841;BME280;68379;47.190;27.558;2023-06-26T12:32:25;99379.27;;;30.84;26.21
78841;BME280;68379;47.190;27.558;2023-06-26T12:34:57;99380.94;;;30.95;25.63
78841;BME280;68379;47.190;27.558;2023-06-26T12:37:26;99382.17;;;30.49;25.76
78841;BME280;68379;47.190;27.558;2023-06-26T12:39:56;99373.24;;;30.24;26.70
78841;BME280;68379;47.190;27.558;2023-06-26T12:42:27;99379.81;;;30.68;26.99
78841;BME280;68379;47.190;27.558;2023-06-26T12:44:56;99381.05;;;31.39;26.45
78841;BME280;68379;47.190;27.558;2023-06-26T12:47:27;99382.54;;;31.84;24.96
78841;BME280;68379;47.190;27.558;2023-06-26T12:49:56;99386.44;;;32.10;25.17
78841;BME280;68379;47.190;27.558;2023-06-26T12:52:25;99380.13;;;32.36;25.62
78841;BME280;68379;47.190;27.558;2023-06-26T12:54:55;99381.74;;;32.28;25.26
78841;BME280;68379;47.190;27.558;2023-06-26T12:57:26;99382.64;;;31.69;25.36
78841;BME280;68379;47.190;27.558;2023-06-26T12:59:55;99377.17;;;31.48;25.73
78841;BME280;68379;47.190;27.558;2023-06-26T13:02:24;99382.38;;;31.00;25.31
78841;BME280;68379;47.190;27.558;2023-06-26T13:04:53;99377.38;;;30.83;25.81
78841;BME280;68379;47.190;27.558;2023-06-26T13:07:22;99372.86;;;30.80;26.19
78841;BME280;68379;47.190;27.558;2023-06-26T13:09:56;99378.08;;;31.49;26.09
78841;BME280;68379;47.190;27.558;2023-06-26T13:12:25;99377.67;;;31.99;25.26
78841;BME280;68379;47.190;27.558;2023-06-26T13:14:54;99373.54;;;32.15;23.96
78841;BME280;68379;47.190;27.558;2023-06-26T13:17:23;99371.27;;;32.19;22.98
78841;BME280;68379;47.190;27.558;2023-06-26T13:19:52;99373.76;;;32.39;22.28
78841;BME280;68379;47.190;27.558;2023-06-26T13:22:21;99374.05;;;32.51;21.36
78841;BME280;68379;47.190;27.558;2023-06-26T13:24:50;99370.38;;;32.66;21.69
78841;BME280;68379;47.190;27.558;2023-06-26T13:27:19;99362.71;;;32.78;21.13
78841;BME280;68379;47.190;27.558;2023-06-26T13:29:48;99363.98;;;33.11;21.41
78841;BME280;68379;47.190;27.558;2023-06-26T13:32:17;99365.61;;;33.31;21.60
78841;BME280;68379;47.190;27.558;2023-06-26T13:34:46;99365.45;;;33.45;21.92
78841;BME280;68379;47.190;27.558;2023-06-26T13:37:16;99366.98;;;33.65;21.76
78841;BME280;68379;47.190;27.558;2023-06-26T13:39:45;99364.56;;;33.68;21.68
78841;BME280;68379;47.190;27.558;2023-06-26T13:42:18;99364.93;;;33.69;21.96
78841;BME280;68379;47.190;27.558;2023-06-26T13:44:47;99361.95;;;33.44;22.44
78841;BME280;68379;47.190;27.558;2023-06-26T13:47:17;99359.83;;;32.61;23.36
78841;BME280;68379;47.190;27.558;2023-06-26T13:49:46;99364.08;;;31.90;24.30
78841;BME280;68379;47.190;27.558;2023-06-26T13:52:16;99363.69;;;31.82;24.08
78841;BME280;68379;47.190;27.558;2023-06-26T13:54:45;99354.58;;;32.01;24.09